Time;durP1;ratioP1;P1;durP2;ratioP2;P2;SDS_P1;SDS_P2;PMS_P1;PMS_P2;Temp;Humidity;BMP_temperature;BMP_pressure;BME280_temperature;BME280_humidity;BME280_pressure;Samples;Min_cycle;Max_cycle;Signal;HPM_P1;HPM_P2
2022/05/30 00:01:56;;;;;;;2.00;1.52;;;;;;;;;;5064272;28;20478;-74
2022/05/30 00:04:21;;;;;;;1.30;1.20;;;;;;;;;;5064499;28;20029;-74
2022/05/30 00:06:47;;;;;;;1.30;1.20;;;;;;;;;;5065616;28;20775;-74
2022/05/30 00:09:13;;;;;;;1.42;1.23;;;;;;;;;;5064823;28;20064;-74
2022/05/30 00:11:39;;;;;;;2.35;1.60;;;;;;;;;;5066294;28;20439;-74
2022/05/30 00:14:05;;;;;;;4.18;1.85;;;;;;;;;;5066762;28;20020;-74
2022/05/30 00:16:30;;;;;;;2.47;1.30;;;;;;;;;;5063828;28;20036;-74
2022/05/30 00:18:57;;;;;;;3.38;1.70;;;;;;;;;;5066187;28;20405;-74
2022/05/30 00:21:24;;;;;;;3.28;1.60;;;;;;;;;;5065228;28;20024;-74
2022/05/30 00:23:53;;;;;;;1.60;1.30;;;;;;;;;;5065818;28;20028;-74
2022/05/30 00:26:19;;;;;;;1.40;1.15;;;;;;;;;;5065121;28;20079;-74
2022/05/30 00:28:44;;;;;;;1.10;1.02;;;;;;;;;;5063823;28;20542;-74
2022/05/30 00:31:12;;;;;;;1.75;1.30;;;;;;;;;;5047238;28;20090;-74
2022/05/30 00:33:38;;;;;;;2.13;1.13;;;;;;;;;;5064467;28;20040;-74
2022/05/30 00:36:04;;;;;;;4.90;1.70;;;;;;;;;;5065827;28;20020;-74
2022/05/30 00:38:29;;;;;;;1.63;1.33;;;;;;;;;;5065123;28;20028;-74
2022/05/30 00:40:54;;;;;;;2.22;1.40;;;;;;;;;;5065640;28;20240;-74
2022/05/30 00:43:31;;;;;;;2.17;1.75;;;;;;;;;;5064008;28;20029;-74
2022/05/30 00:45:58;;;;;;;1.83;1.48;;;;;;;;;;5064925;28;20021;-73
2022/05/30 00:48:38;;;;;;;1.70;1.50;;;;;;;;;;5052513;28;20119;-74
2022/05/30 00:51:11;;;;;;;1.25;1.15;;;;;;;;;;5060789;28;20514;-74
2022/05/30 00:53:40;;;;;;;1.40;1.30;;;;;;;;;;5045746;28;20528;-74
2022/05/30 00:56:08;;;;;;;1.40;1.30;;;;;;;;;;5065143;28;20335;-74
2022/05/30 00:58:37;;;;;;;1.20;1.10;;;;;;;;;;5063919;28;20386;-74
2022/05/30 01:01:04;;;;;;;1.48;1.25;;;;;;;;;;5064668;28;20024;-74
2022/05/30 01:06:32;;;;;;;2.22;1.48;;;;;;;;;;5064741;28;20044;-73
2022/05/30 01:08:59;;;;;;;2.17;1.60;;;;;;;;;;5064407;28;20028;-72
2022/05/30 01:11:24;;;;;;;1.73;1.60;;;;;;;;;;5065211;28;20086;-74
2022/05/30 01:13:49;;;;;;;2.28;1.50;;;;;;;;;;5064750;28;20032;-74
2022/05/30 01:16:15;;;;;;;1.70;1.52;;;;;;;;;;5066000;28;20029;-74
2022/05/30 01:18:45;;;;;;;1.63;1.52;;;;;;;;;;5064238;28;20445;-74
2022/05/30 01:21:29;;;;;;;1.60;1.50;;;;;;;;;;5062259;28;20520;-74
2022/05/30 01:24:20;;;;;;;2.45;1.50;;;;;;;;;;5058402;28;20478;-74
2022/05/30 01:27:11;;;;;;;1.48;1.30;;;;;;;;;;5064189;28;20036;-74
2022/05/30 01:29:44;;;;;;;2.15;1.67;;;;;;;;;;5061183;28;20031;-74
2022/05/30 01:32:15;;;;;;;2.28;1.40;;;;;;;;;;5058894;28;20038;-73
2022/05/30 01:34:41;;;;;;;1.65;1.33;;;;;;;;;;5065201;28;20044;-74
2022/05/30 01:37:06;;;;;;;2.00;1.40;;;;;;;;;;5062137;28;20398;-74
2022/05/30 01:39:31;;;;;;;2.85;1.73;;;;;;;;;;5064067;28;20438;-74
2022/05/30 01:41:57;;;;;;;2.10;1.70;;;;;;;;;;5064773;28;20013;-74
2022/05/30 01:44:22;;;;;;;2.22;1.90;;;;;;;;;;5063466;28;20051;-74
2022/05/30 01:46:47;;;;;;;1.77;1.50;;;;;;;;;;5064147;28;20096;-74
2022/05/30 01:49:12;;;;;;;2.50;1.52;;;;;;;;;;5045690;28;20028;-74
2022/05/30 01:51:38;;;;;;;1.80;1.48;;;;;;;;;;5062866;28;20028;-74
2022/05/30 01:54:03;;;;;;;1.40;1.30;;;;;;;;;;5063978;28;20020;-74
2022/05/30 01:56:28;;;;;;;1.95;1.60;;;;;;;;;;5051469;28;20107;-74
2022/05/30 01:58:54;;;;;;;1.70;1.48;;;;;;;;;;5061965;28;20039;-74
2022/05/30 02:01:22;;;;;;;2.08;1.65;;;;;;;;;;5060567;28;20378;-74
2022/05/30 02:03:50;;;;;;;2.20;1.52;;;;;;;;;;5063559;28;20097;-74
2022/05/30 02:06:15;;;;;;;1.77;1.40;;;;;;;;;;5064174;28;20036;-74
2022/05/30 02:08:42;;;;;;;2.83;1.60;;;;;;;;;;5063554;28;20079;-74
2022/05/30 02:11:10;;;;;;;1.88;1.67;;;;;;;;;;5060599;28;20347;-74
2022/05/30 02:13:37;;;;;;;3.00;1.95;;;;;;;;;;5063900;28;20111;-74
2022/05/30 02:18:51;;;;;;;1.85;1.73;;;;;;;;;;5063053;28;20042;-73
2022/05/30 02:21:17;;;;;;;2.53;1.60;;;;;;;;;;5064548;28;20029;-73
2022/05/30 02:23:42;;;;;;;1.98;1.75;;;;;;;;;;5063928;28;20135;-73
2022/05/30 02:26:08;;;;;;;2.08;1.60;;;;;;;;;;5064181;28;20017;-73
2022/05/30 02:28:33;;;;;;;2.75;2.42;;;;;;;;;;5061454;28;20075;-73
2022/05/30 02:30:58;;;;;;;1.90;1.80;;;;;;;;;;5063440;28;20051;-73
2022/05/30 02:38:52;;;;;;;2.58;1.90;;;;;;;;;;5059637;28;20081;-73
2022/05/30 02:41:20;;;;;;;1.75;1.65;;;;;;;;;;5063367;28;20036;-74
2022/05/30 02:43:46;;;;;;;2.90;1.80;;;;;;;;;;5063641;28;20085;-74
2022/05/30 02:46:12;;;;;;;2.45;1.85;;;;;;;;;;5050041;28;20491;-73
2022/05/30 02:48:37;;;;;;;2.38;1.98;;;;;;;;;;5062308;28;20044;-73
2022/05/30 02:51:02;;;;;;;2.78;1.98;;;;;;;;;;5044741;28;20067;-74
2022/05/30 02:53:28;;;;;;;2.80;1.90;;;;;;;;;;5063457;28;20060;-73
2022/05/30 02:55:53;;;;;;;2.50;2.30;;;;;;;;;;5063191;28;20484;-74
2022/05/30 02:58:19;;;;;;;2.63;2.38;;;;;;;;;;5062085;28;20085;-73
2022/05/30 03:00:44;;;;;;;2.20;2.00;;;;;;;;;;5062734;28;20028;-73
2022/05/30 03:03:09;;;;;;;2.30;2.10;;;;;;;;;;5047450;28;20409;-73
2022/05/30 03:05:37;;;;;;;2.88;2.25;;;;;;;;;;5063611;28;20048;-72
2022/05/30 03:08:04;;;;;;;2.35;2.00;;;;;;;;;;5063177;28;20115;-73
2022/05/30 03:10:30;;;;;;;2.17;1.98;;;;;;;;;;5065439;28;20119;-73
2022/05/30 03:12:55;;;;;;;3.03;2.40;;;;;;;;;;5065742;28;20111;-74
2022/05/30 03:15:20;;;;;;;2.45;1.90;;;;;;;;;;5067506;28;20081;-74
2022/05/30 03:17:46;;;;;;;2.97;1.98;;;;;;;;;;5066042;28;20035;-73
2022/05/30 03:20:11;;;;;;;2.20;2.00;;;;;;;;;;5067876;28;20020;-73
2022/05/30 03:22:37;;;;;;;2.22;2.00;;;;;;;;;;5066377;28;20625;-73
2022/05/30 03:25:02;;;;;;;3.05;2.30;;;;;;;;;;5066135;28;20035;-73
2022/05/30 03:27:28;;;;;;;2.28;1.95;;;;;;;;;;5065676;28;20037;-72
2022/05/30 03:29:53;;;;;;;3.10;2.30;;;;;;;;;;5065114;28;20043;-73
2022/05/30 03:32:18;;;;;;;3.33;2.20;;;;;;;;;;5065693;28;20112;-73
2022/05/30 03:34:44;;;;;;;3.83;2.38;;;;;;;;;;5064428;28;20028;-74
2022/05/30 03:37:09;;;;;;;4.18;2.38;;;;;;;;;;5066511;28;20062;-73
2022/05/30 03:39:34;;;;;;;6.03;2.22;;;;;;;;;;5065217;28;20031;-73
2022/05/30 03:42:00;;;;;;;2.42;1.88;;;;;;;;;;5064444;28;20479;-73
2022/05/30 03:44:25;;;;;;;3.00;2.30;;;;;;;;;;5067799;28;20056;-73
2022/05/30 03:46:50;;;;;;;2.67;2.00;;;;;;;;;;5066236;28;20453;-73
2022/05/30 03:49:16;;;;;;;2.70;2.35;;;;;;;;;;5065523;28;20519;-73
2022/05/30 03:51:41;;;;;;;3.30;2.25;;;;;;;;;;5066988;28;20531;-73
2022/05/30 03:54:07;;;;;;;3.22;2.70;;;;;;;;;;5066649;28;20032;-74
2022/05/30 03:56:32;;;;;;;2.65;2.45;;;;;;;;;;5067313;28;20028;-73
2022/05/30 03:58:57;;;;;;;3.63;2.67;;;;;;;;;;5064244;28;20020;-72
2022/05/30 04:01:24;;;;;;;3.90;3.22;;;;;;;;;;5064242;28;20478;-73
2022/05/30 04:03:49;;;;;;;5.45;3.30;;;;;;;;;;5065877;28;20493;-73
2022/05/30 04:06:15;;;;;;;4.35;3.17;;;;;;;;;;5066637;28;20032;-73
2022/05/30 04:08:40;;;;;;;5.18;3.47;;;;;;;;;;5065011;28;20039;-73
2022/05/30 04:11:05;;;;;;;4.85;3.40;;;;;;;;;;5064834;28;20508;-73
2022/05/30 04:13:31;;;;;;;4.55;3.50;;;;;;;;;;5065838;28;20032;-72
2022/05/30 04:15:56;;;;;;;4.07;3.67;;;;;;;;;;5065692;28;20056;-72
2022/05/30 04:18:21;;;;;;;5.40;3.25;;;;;;;;;;5065638;28;20028;-72
2022/05/30 04:20:47;;;;;;;4.82;3.45;;;;;;;;;;5065263;28;20039;-73
2022/05/30 04:23:13;;;;;;;4.10;3.05;;;;;;;;;;5065577;28;20078;-72
2022/05/30 04:25:39;;;;;;;3.90;3.00;;;;;;;;;;5066146;28;20078;-73
2022/05/30 04:28:04;;;;;;;4.10;3.08;;;;;;;;;;5064221;28;20028;-73
2022/05/30 04:30:30;;;;;;;4.72;2.92;;;;;;;;;;5063330;28;20033;-73
2022/05/30 04:32:55;;;;;;;3.65;2.88;;;;;;;;;;5063971;28;20028;-73
2022/05/30 04:35:21;;;;;;;4.53;3.15;;;;;;;;;;5065106;28;20441;-73
2022/05/30 04:37:47;;;;;;;3.53;2.95;;;;;;;;;;5063586;28;20040;-73
2022/05/30 04:40:13;;;;;;;3.38;2.70;;;;;;;;;;5065918;28;20024;-72
2022/05/30 04:42:39;;;;;;;4.38;2.75;;;;;;;;;;5064811;28;20039;-72
2022/05/30 04:45:05;;;;;;;4.35;2.80;;;;;;;;;;5065941;28;20016;-73
2022/05/30 04:47:35;;;;;;;3.72;2.63;;;;;;;;;;5063235;28;20499;-74
2022/05/30 04:50:02;;;;;;;3.95;2.70;;;;;;;;;;5066616;28;20405;-73
2022/05/30 04:52:27;;;;;;;3.33;2.92;;;;;;;;;;5065675;28;20044;-73
2022/05/30 04:54:52;;;;;;;3.53;2.75;;;;;;;;;;5065887;28;20027;-73
2022/05/30 04:57:18;;;;;;;3.92;2.78;;;;;;;;;;5064390;28;20448;-73
2022/05/30 04:59:43;;;;;;;2.53;2.15;;;;;;;;;;5062772;28;20025;-73
2022/05/30 05:02:09;;;;;;;3.70;2.90;;;;;;;;;;5063767;28;20021;-73
2022/05/30 05:04:35;;;;;;;3.50;2.63;;;;;;;;;;5065495;28;20059;-73
2022/05/30 05:07:03;;;;;;;3.60;2.80;;;;;;;;;;5063002;28;20016;-73
2022/05/30 05:09:46;;;;;;;2.80;2.50;;;;;;;;;;5062690;28;20021;-73
2022/05/30 05:12:11;;;;;;;4.20;2.30;;;;;;;;;;5062766;28;20035;-73
2022/05/30 05:14:36;;;;;;;3.25;2.40;;;;;;;;;;5063034;28;20402;-73
2022/05/30 05:17:02;;;;;;;2.70;2.40;;;;;;;;;;5063545;28;20020;-73
2022/05/30 05:19:28;;;;;;;2.97;2.28;;;;;;;;;;5065922;28;20035;-73
2022/05/30 05:21:53;;;;;;;2.83;2.40;;;;;;;;;;5062351;28;20024;-73
2022/05/30 05:24:18;;;;;;;3.28;2.13;;;;;;;;;;5045474;28;20040;-73
2022/05/30 05:26:46;;;;;;;3.17;2.58;;;;;;;;;;5063850;28;20283;-74
2022/05/30 05:29:11;;;;;;;3.17;2.75;;;;;;;;;;5062274;28;20059;-73
2022/05/30 05:31:37;;;;;;;2.90;2.38;;;;;;;;;;5063220;28;20490;-73
2022/05/30 05:34:06;;;;;;;3.40;2.70;;;;;;;;;;5063643;28;20016;-73
2022/05/30 05:36:36;;;;;;;3.85;2.90;;;;;;;;;;5061502;28;20028;-72
2022/05/30 05:39:02;;;;;;;3.65;2.65;;;;;;;;;;5064054;28;20028;-74
2022/05/30 05:41:28;;;;;;;3.35;2.80;;;;;;;;;;5065023;28;20141;-73
2022/05/30 05:43:55;;;;;;;4.18;2.58;;;;;;;;;;5060230;28;20025;-72
2022/05/30 05:46:23;;;;;;;2.63;2.42;;;;;;;;;;5062319;28;20021;-73
2022/05/30 05:48:51;;;;;;;3.35;2.70;;;;;;;;;;5064972;28;20039;-73
2022/05/30 05:51:19;;;;;;;3.17;2.67;;;;;;;;;;5064157;28;20035;-73
2022/05/30 05:53:44;;;;;;;4.63;3.00;;;;;;;;;;5064636;28;20365;-73
2022/05/30 05:56:22;;;;;;;3.63;2.58;;;;;;;;;;5064612;28;20478;-73
2022/05/30 05:58:47;;;;;;;2.97;2.67;;;;;;;;;;5062293;28;20550;-73
2022/05/30 06:01:22;;;;;;;5.10;3.13;;;;;;;;;;5061695;28;20127;-73
2022/05/30 06:03:51;;;;;;;4.18;3.38;;;;;;;;;;5060540;28;20040;-73
2022/05/30 06:06:16;;;;;;;5.05;3.47;;;;;;;;;;5064287;28;20032;-73
2022/05/30 06:08:41;;;;;;;5.95;2.97;;;;;;;;;;5043698;28;20021;-73
2022/05/30 06:11:11;;;;;;;5.75;3.20;;;;;;;;;;5061680;28;20033;-73
2022/05/30 06:13:42;;;;;;;2.85;2.33;;;;;;;;;;5059612;28;20028;-75
2022/05/30 06:16:11;;;;;;;4.18;2.95;;;;;;;;;;5056336;28;20027;-75
2022/05/30 06:18:36;;;;;;;4.05;3.03;;;;;;;;;;5057864;28;20033;-74
2022/05/30 06:21:02;;;;;;;6.32;3.22;;;;;;;;;;5060197;28;20062;-74
2022/05/30 06:23:28;;;;;;;5.60;3.83;;;;;;;;;;5057211;28;20493;-74
2022/05/30 06:25:53;;;;;;;4.75;3.28;;;;;;;;;;5056443;28;20031;-74
2022/05/30 06:28:19;;;;;;;8.88;3.70;;;;;;;;;;5056213;28;20033;-74
2022/05/30 06:30:44;;;;;;;4.88;3.72;;;;;;;;;;5060713;28;20066;-74
2022/05/30 06:33:09;;;;;;;6.30;3.90;;;;;;;;;;5038796;28;20028;-75
2022/05/30 06:35:40;;;;;;;5.75;4.03;;;;;;;;;;5041119;28;20056;-74
2022/05/30 06:38:06;;;;;;;5.32;4.43;;;;;;;;;;5059303;28;20021;-74
2022/05/30 06:40:31;;;;;;;8.70;4.35;;;;;;;;;;5041515;28;20043;-75
2022/05/30 06:42:56;;;;;;;5.55;3.90;;;;;;;;;;5061654;28;20051;-75
2022/05/30 06:45:22;;;;;;;6.50;4.07;;;;;;;;;;5064596;28;20066;-74
2022/05/30 06:47:47;;;;;;;6.25;4.15;;;;;;;;;;5064477;28;20383;-75
2022/05/30 06:50:12;;;;;;;6.28;4.30;;;;;;;;;;5064427;28;20024;-74
2022/05/30 06:52:38;;;;;;;5.65;4.13;;;;;;;;;;5066455;28;20028;-74
2022/05/30 06:55:03;;;;;;;8.90;4.70;;;;;;;;;;5066962;28;20424;-76
2022/05/30 07:00:15;;;;;;;8.88;4.90;;;;;;;;;;5066403;28;20044;-73
2022/05/30 07:02:40;;;;;;;7.28;5.00;;;;;;;;;;5067330;28;20063;-73
2022/05/30 07:05:06;;;;;;;9.05;6.22;;;;;;;;;;5067065;28;20048;-74
2022/05/30 07:07:31;;;;;;;8.27;5.22;;;;;;;;;;5065493;28;20537;-74
2022/05/30 07:09:56;;;;;;;8.85;5.20;;;;;;;;;;5067742;28;20119;-73
2022/05/30 07:12:22;;;;;;;7.55;5.63;;;;;;;;;;5064858;28;20040;-74
2022/05/30 07:14:47;;;;;;;9.38;5.97;;;;;;;;;;5061798;28;20032;-74
2022/05/30 07:17:13;;;;;;;9.15;5.95;;;;;;;;;;5067129;28;20597;-74
2022/05/30 07:19:38;;;;;;;9.68;6.70;;;;;;;;;;5066593;28;20525;-73
2022/05/30 07:22:04;;;;;;;11.38;7.55;;;;;;;;;;5067921;28;20112;-74
2022/05/30 07:24:30;;;;;;;10.27;7.25;;;;;;;;;;5064679;28;20035;-73
2022/05/30 07:26:55;;;;;;;11.98;7.70;;;;;;;;;;5066987;28;20051;-73
2022/05/30 07:29:21;;;;;;;10.35;7.57;;;;;;;;;;5066882;28;20024;-72
2022/05/30 07:31:46;;;;;;;10.18;7.40;;;;;;;;;;5067524;28;20111;-74
2022/05/30 07:34:11;;;;;;;9.75;7.05;;;;;;;;;;5066049;28;20021;-75
2022/05/30 07:36:37;;;;;;;11.43;7.15;;;;;;;;;;5065413;28;20565;-73
2022/05/30 07:39:03;;;;;;;8.63;7.00;;;;;;;;;;5065333;28;20032;-74
2022/05/30 07:41:30;;;;;;;8.32;6.05;;;;;;;;;;5066299;28;20093;-75
2022/05/30 07:43:56;;;;;;;10.10;7.75;;;;;;;;;;5057364;28;20027;-75
2022/05/30 07:46:21;;;;;;;11.00;7.40;;;;;;;;;;5065939;28;20029;-74
2022/05/30 07:48:47;;;;;;;9.13;6.85;;;;;;;;;;5066321;28;20100;-74
2022/05/30 07:51:13;;;;;;;11.43;6.72;;;;;;;;;;5065555;28;20037;-74
2022/05/30 07:53:40;;;;;;;10.18;6.47;;;;;;;;;;5064432;28;20412;-74
2022/05/30 07:56:07;;;;;;;8.13;6.43;;;;;;;;;;5063429;28;20028;-74
2022/05/30 07:58:32;;;;;;;12.40;5.75;;;;;;;;;;5065812;28;20562;-74
2022/05/30 08:00:58;;;;;;;7.07;5.60;;;;;;;;;;5066621;28;20111;-74
2022/05/30 08:03:25;;;;;;;8.52;6.03;;;;;;;;;;5066677;28;20047;-74
2022/05/30 08:06:01;;;;;;;8.73;5.93;;;;;;;;;;5066077;28;20035;-76
2022/05/30 08:08:26;;;;;;;7.22;5.40;;;;;;;;;;5063447;28;20444;-75
2022/05/30 08:10:51;;;;;;;7.67;5.47;;;;;;;;;;5048830;28;20078;-76
2022/05/30 08:13:16;;;;;;;7.40;5.50;;;;;;;;;;5065045;28;20288;-74
2022/05/30 08:15:42;;;;;;;7.30;5.43;;;;;;;;;;5064441;28;20273;-73
2022/05/30 08:18:14;;;;;;;8.38;5.60;;;;;;;;;;5066095;28;20347;-74
2022/05/30 08:20:39;;;;;;;8.88;6.10;;;;;;;;;;5066937;28;20407;-73
2022/05/30 08:23:05;;;;;;;8.60;5.50;;;;;;;;;;5047445;28;20063;-74
2022/05/30 08:25:30;;;;;;;7.50;5.95;;;;;;;;;;5066740;28;20043;-75
2022/05/30 08:27:55;;;;;;;6.72;6.00;;;;;;;;;;5063087;28;20620;-75
2022/05/30 08:30:21;;;;;;;8.50;5.90;;;;;;;;;;5068225;28;20504;-75
2022/05/30 08:32:47;;;;;;;6.93;5.93;;;;;;;;;;5061971;28;20567;-75
2022/05/30 08:35:14;;;;;;;6.60;5.32;;;;;;;;;;5061781;28;20107;-74
2022/05/30 08:37:41;;;;;;;6.15;5.38;;;;;;;;;;5063870;28;20031;-74
2022/05/30 08:42:57;;;;;;;7.75;5.68;;;;;;;;;;5059703;28;20185;-73
2022/05/30 08:45:25;;;;;;;6.57;4.90;;;;;;;;;;5063108;28;20024;-75
2022/05/30 08:47:56;;;;;;;9.07;5.10;;;;;;;;;;5062326;28;20021;-74
2022/05/30 08:50:38;;;;;;;5.30;4.75;;;;;;;;;;5040925;28;20025;-74
2022/05/30 08:53:36;;;;;;;6.13;4.05;;;;;;;;;;5039687;28;20041;-74
2022/05/30 08:56:25;;;;;;;4.80;4.10;;;;;;;;;;5062229;28;20032;-74
2022/05/30 08:59:07;;;;;;;7.10;4.88;;;;;;;;;;5061103;28;20029;-73
2022/05/30 09:01:43;;;;;;;7.40;4.45;;;;;;;;;;5061114;28;20036;-75
2022/05/30 09:04:27;;;;;;;5.00;3.75;;;;;;;;;;5061114;28;20040;-74
2022/05/30 09:07:02;;;;;;;7.05;4.22;;;;;;;;;;5060912;28;20019;-74
2022/05/30 09:09:42;;;;;;;4.68;3.38;;;;;;;;;;5059200;28;20040;-74
2022/05/30 09:12:13;;;;;;;3.72;2.78;;;;;;;;;;5057852;28;20036;-75
2022/05/30 09:14:46;;;;;;;4.03;2.50;;;;;;;;;;5047152;28;20051;-74
2022/05/30 09:17:37;;;;;;;3.15;2.72;;;;;;;;;;5063845;28;20032;-73
2022/05/30 09:20:05;;;;;;;;;;;;;;;;;;5062188;28;20055;-73
2022/05/30 09:22:30;;;;;;;3.13;2.60;;;;;;;;;;5063198;28;19920;-74
2022/05/30 09:27:41;;;;;;;6.28;2.85;;;;;;;;;;5063617;28;20389;-73
2022/05/30 09:30:09;;;;;;;3.03;2.23;;;;;;;;;;5063870;28;20048;-74
2022/05/30 09:33:08;;;;;;;5.20;2.35;;;;;;;;;;5052649;28;20396;-72
2022/05/30 09:35:35;;;;;;;2.45;1.52;;;;;;;;;;5063764;28;20169;-73
2022/05/30 09:38:16;;;;;;;3.17;2.10;;;;;;;;;;5063862;28;20065;-73
2022/05/30 09:40:44;;;;;;;;;;;;;;;;;;5045943;28;20181;-73
2022/05/30 09:43:21;;;;;;;3.45;2.10;;;;;;;;;;5063751;28;19966;-73
2022/05/30 09:45:47;;;;;;;2.42;1.85;;;;;;;;;;5063376;28;20115;-73
2022/05/30 09:48:18;;;;;;;3.13;2.00;;;;;;;;;;5063211;28;20116;-73
2022/05/30 09:50:46;;;;;;;1.98;1.48;;;;;;;;;;5064637;28;20028;-73
2022/05/30 09:53:12;;;;;;;3.90;1.60;;;;;;;;;;5046457;28;20029;-73
2022/05/30 09:55:51;;;;;;;2.55;1.60;;;;;;;;;;5065187;28;20524;-74
2022/05/30 09:58:17;;;;;;;4.25;1.73;;;;;;;;;;5062067;28;20522;-73
2022/05/30 10:00:57;;;;;;;2.47;1.55;;;;;;;;;;5057999;28;20043;-73
2022/05/30 10:03:27;;;;;;;2.45;1.58;;;;;;;;;;5063307;28;20032;-73
2022/05/30 10:06:17;;;;;;;3.38;1.50;;;;;;;;;;5060924;28;20617;-74
2022/05/30 10:08:43;;;;;;;2.30;1.50;;;;;;;;;;5061476;28;20044;-74
2022/05/30 10:11:09;;;;;;;1.70;1.52;;;;;;;;;;5065354;28;20028;-73
2022/05/30 10:13:40;;;;;;;1.83;1.23;;;;;;;;;;5063641;28;20370;-74
2022/05/30 10:16:09;;;;;;;3.20;1.65;;;;;;;;;;5062894;28;20099;-75
2022/05/30 10:18:54;;;;;;;2.58;1.55;;;;;;;;;;5062380;28;20069;-74
2022/05/30 10:21:30;;;;;;;2.00;1.75;;;;;;;;;;5064488;28;20422;-72
2022/05/30 10:30:31;;;;;;;3.28;1.80;;;;;;;;;;5057874;28;20659;-73
2022/05/30 10:32:56;;;;;;;2.38;1.45;;;;;;;;;;5064394;28;20024;-74
2022/05/30 10:35:26;;;;;;;3.00;1.93;;;;;;;;;;5065285;28;20679;-72
2022/05/30 10:38:13;;;;;;;1.70;1.50;;;;;;;;;;5065001;28;20124;-74
2022/05/30 10:40:50;;;;;;;2.65;1.48;;;;;;;;;;5063838;28;20478;-76
2022/05/30 10:43:24;;;;;;;2.35;1.50;;;;;;;;;;5066173;28;20616;-74
2022/05/30 10:45:59;;;;;;;1.50;1.27;;;;;;;;;;5064913;28;20478;-75
2022/05/30 10:48:27;;;;;;;2.38;1.58;;;;;;;;;;5064895;28;20402;-76
2022/05/30 10:51:17;;;;;;;2.17;1.48;;;;;;;;;;5063542;28;20390;-75
2022/05/30 10:53:51;;;;;;;2.20;1.40;;;;;;;;;;5052966;28;20037;-75
2022/05/30 10:56:51;;;;;;;1.55;1.45;;;;;;;;;;5065452;28;20070;-75
2022/05/30 10:59:42;;;;;;;2.08;1.50;;;;;;;;;;5018172;28;20087;-75
2022/05/30 11:02:13;;;;;;;1.58;1.30;;;;;;;;;;5064403;28;20048;-71
2022/05/30 11:05:06;;;;;;;3.33;1.60;;;;;;;;;;5065163;28;20032;-73
2022/05/30 11:08:00;;;;;;;2.13;1.60;;;;;;;;;;5062809;28;20090;-74
2022/05/30 11:10:45;;;;;;;3.47;1.77;;;;;;;;;;5050311;28;20519;-76
2022/05/30 11:13:23;;;;;;;3.78;1.92;;;;;;;;;;5045294;28;20055;-74
2022/05/30 11:15:58;;;;;;;4.43;1.92;;;;;;;;;;5065047;28;20104;-74
2022/05/30 11:18:39;;;;;;;2.17;1.48;;;;;;;;;;5066872;28;20024;-74
2022/05/30 11:21:13;;;;;;;2.85;1.60;;;;;;;;;;5066708;28;20028;-74
2022/05/30 11:23:41;;;;;;;1.92;1.70;;;;;;;;;;5067731;28;20452;-74
2022/05/30 11:26:39;;;;;;;1.70;1.60;;;;;;;;;;5067476;28;20047;-74
2022/05/30 11:29:22;;;;;;;2.22;1.70;;;;;;;;;;5063699;28;20106;-74
2022/05/30 11:32:02;;;;;;;2.50;1.40;;;;;;;;;;5070595;28;20067;-74
2022/05/30 11:34:55;;;;;;;1.30;1.20;;;;;;;;;;5070870;28;20402;-73
2022/05/30 11:37:45;;;;;;;2.08;1.30;;;;;;;;;;5070909;28;20016;-74
2022/05/30 11:40:30;;;;;;;1.70;1.17;;;;;;;;;;5070752;28;20397;-73
2022/05/30 11:43:04;;;;;;;3.47;1.48;;;;;;;;;;5052830;28;20542;-73
2022/05/30 11:45:51;;;;;;;2.63;1.60;;;;;;;;;;5068848;28;20132;-73
2022/05/30 11:48:19;;;;;;;1.77;1.20;;;;;;;;;;5069655;28;20025;-74
2022/05/30 11:50:54;;;;;;;4.18;1.38;;;;;;;;;;5070341;28;20024;-73
2022/05/30 11:53:34;;;;;;;2.33;1.35;;;;;;;;;;5070022;28;20059;-72
2022/05/30 11:56:16;;;;;;;1.33;1.20;;;;;;;;;;5070906;28;20107;-73
2022/05/30 11:59:14;;;;;;;2.15;1.50;;;;;;;;;;5070435;28;20025;-75
2022/05/30 12:01:43;;;;;;;2.10;1.20;;;;;;;;;;5051029;28;20068;-73
2022/05/30 12:04:30;;;;;;;2.45;1.40;;;;;;;;;;5064387;28;20036;-74
2022/05/30 12:07:33;;;;;;;3.22;1.42;;;;;;;;;;5040899;28;20093;-75
2022/05/30 12:10:36;;;;;;;1.55;1.20;;;;;;;;;;5064892;28;20028;-74
2022/05/30 12:13:10;;;;;;;1.75;1.45;;;;;;;;;;5066326;28;20100;-73
2022/05/30 12:15:41;;;;;;;1.48;1.00;;;;;;;;;;5064605;28;20127;-74
2022/05/30 12:24:09;;;;;;;4.85;1.30;;;;;;;;;;5065491;28;20175;-74
2022/05/30 12:26:48;;;;;;;4.15;1.30;;;;;;;;;;5063271;28;20084;-72
2022/05/30 12:29:38;;;;;;;2.90;1.80;;;;;;;;;;5065910;28;20025;-73
2022/05/30 12:32:09;;;;;;;2.60;1.40;;;;;;;;;;5066751;28;20069;-73
2022/05/30 12:35:10;;;;;;;2.22;1.33;;;;;;;;;;5066212;28;20405;-75
2022/05/30 12:37:43;;;;;;;2.20;1.20;;;;;;;;;;5066648;28;20395;-73
2022/05/30 12:40:23;;;;;;;2.30;1.15;;;;;;;;;;5046306;28;20040;-75
2022/05/30 12:43:04;;;;;;;1.55;1.30;;;;;;;;;;5064889;28;20544;-74
2022/05/30 12:45:57;;;;;;;1.65;1.35;;;;;;;;;;5065288;28;20024;-74
2022/05/30 12:48:36;;;;;;;2.22;1.40;;;;;;;;;;5060910;28;20040;-74
2022/05/30 12:51:23;;;;;;;3.08;1.50;;;;;;;;;;5066548;28;20056;-74
2022/05/30 12:53:54;;;;;;;2.92;1.58;;;;;;;;;;5046652;28;20028;-74
2022/05/30 12:56:38;;;;;;;1.98;1.40;;;;;;;;;;5065544;28;20027;-73
2022/05/30 12:59:03;;;;;;;2.78;1.63;;;;;;;;;;5058797;28;20394;-73
2022/05/30 13:01:31;;;;;;;1.73;1.38;;;;;;;;;;5065711;28;20031;-73
2022/05/30 13:04:08;;;;;;;2.92;1.20;;;;;;;;;;5044958;28;20576;-73
2022/05/30 13:06:51;;;;;;;2.45;1.30;;;;;;;;;;5044514;28;20020;-72
2022/05/30 13:09:35;;;;;;;1.38;1.23;;;;;;;;;;5046662;28;20320;-72
2022/05/30 13:12:11;;;;;;;2.17;1.40;;;;;;;;;;5051468;28;20024;-74
2022/05/30 13:14:36;;;;;;;1.23;1.10;;;;;;;;;;5047797;28;20024;-73
2022/05/30 13:17:23;;;;;;;2.03;1.30;;;;;;;;;;5064281;28;20070;-73
2022/05/30 13:19:52;;;;;;;1.40;1.15;;;;;;;;;;5065066;28;20272;-75
2022/05/30 13:22:53;;;;;;;1.45;1.30;;;;;;;;;;5065611;28;20063;-75
2022/05/30 13:25:32;;;;;;;1.50;1.20;;;;;;;;;;5024505;28;20055;-74
2022/05/30 13:28:14;;;;;;;2.33;1.30;;;;;;;;;;5049364;28;20033;-73
2022/05/30 13:30:39;;;;;;;2.97;1.23;;;;;;;;;;5066026;28;20322;-73
2022/05/30 13:33:11;;;;;;;2.47;1.30;;;;;;;;;;5064093;28;20055;-73
2022/05/30 13:35:38;;;;;;;1.50;1.20;;;;;;;;;;5063597;28;20104;-73
2022/05/30 13:38:08;;;;;;;3.25;1.30;;;;;;;;;;5063560;28;20035;-72
2022/05/30 13:40:34;;;;;;;1.45;1.35;;;;;;;;;;5064451;28;20032;-72
2022/05/30 13:43:02;;;;;;;1.70;1.30;;;;;;;;;;5065060;28;20401;-73
2022/05/30 13:45:46;;;;;;;2.00;1.13;;;;;;;;;;5063882;28;20056;-72
2022/05/30 13:48:15;;;;;;;2.67;1.50;;;;;;;;;;5057453;28;20040;-73
2022/05/30 13:51:02;;;;;;;2.88;1.30;;;;;;;;;;5062233;28;20522;-73
2022/05/30 13:53:54;;;;;;;2.50;1.50;;;;;;;;;;5064388;28;20024;-73
2022/05/30 13:56:33;;;;;;;2.40;1.40;;;;;;;;;;5061196;28;20039;-72
2022/05/30 13:59:01;;;;;;;1.35;1.20;;;;;;;;;;5063817;28;20036;-72
2022/05/30 14:01:33;;;;;;;1.48;1.17;;;;;;;;;;5064836;28;20027;-73
2022/05/30 14:04:05;;;;;;;2.05;1.67;;;;;;;;;;5064577;28;20111;-72
2022/05/30 14:06:36;;;;;;;1.65;1.25;;;;;;;;;;5064238;28;20159;-72
2022/05/30 14:09:04;;;;;;;2.13;1.52;;;;;;;;;;5063948;28;20317;-73
2022/05/30 14:11:35;;;;;;;1.90;1.50;;;;;;;;;;5063709;28;20447;-73
2022/05/30 14:14:01;;;;;;;2.42;1.20;;;;;;;;;;5064394;28;20020;-72
2022/05/30 14:16:41;;;;;;;1.52;1.17;;;;;;;;;;5063586;28;20273;-73
2022/05/30 14:19:29;;;;;;;1.48;1.33;;;;;;;;;;5058772;28;20083;-72
2022/05/30 14:21:57;;;;;;;1.60;1.20;;;;;;;;;;5062891;28;20500;-74
2022/05/30 14:24:32;;;;;;;2.47;1.33;;;;;;;;;;5060463;28;20101;-74
2022/05/30 14:26:59;;;;;;;1.88;1.20;;;;;;;;;;5069553;28;20437;-74
2022/05/30 14:29:32;;;;;;;1.27;1.15;;;;;;;;;;5058379;28;20068;-72
2022/05/30 14:32:20;;;;;;;4.25;1.50;;;;;;;;;;5054874;28;20389;-74
2022/05/30 14:35:03;;;;;;;2.38;1.40;;;;;;;;;;5047628;28;20033;-71
2022/05/30 14:37:40;;;;;;;3.53;1.27;;;;;;;;;;5064758;28;20171;-73
2022/05/30 14:40:26;;;;;;;2.92;1.30;;;;;;;;;;5064137;28;20032;-73
2022/05/30 14:42:54;;;;;;;1.50;1.20;;;;;;;;;;5045141;28;20410;-72
2022/05/30 14:45:39;;;;;;;1.98;1.10;;;;;;;;;;5064880;28;20032;-74
2022/05/30 14:48:08;;;;;;;1.48;1.20;;;;;;;;;;5063712;28;20514;-74
2022/05/30 14:50:44;;;;;;;3.90;1.52;;;;;;;;;;5061803;28;20079;-72
2022/05/30 14:53:14;;;;;;;1.95;1.23;;;;;;;;;;5064126;28;20319;-72
2022/05/30 14:55:46;;;;;;;1.40;1.30;;;;;;;;;;5063656;28;20028;-73
2022/05/30 14:58:17;;;;;;;1.98;1.40;;;;;;;;;;5053016;28;20071;-72
2022/05/30 15:00:59;;;;;;;2.78;1.23;;;;;;;;;;5063484;28;20041;-73
2022/05/30 15:06:11;;;;;;;1.30;1.10;;;;;;;;;;5061334;28;20093;-74
2022/05/30 15:08:37;;;;;;;1.75;1.10;;;;;;;;;;5065501;28;20609;-71
2022/05/30 15:11:16;;;;;;;1.30;1.20;;;;;;;;;;5067907;28;20035;-71
2022/05/30 15:13:50;;;;;;;2.97;1.50;;;;;;;;;;5069546;28;20028;-72
2022/05/30 15:16:16;;;;;;;2.10;1.10;;;;;;;;;;5068109;28;20117;-71
2022/05/30 15:18:43;;;;;;;1.27;1.17;;;;;;;;;;5066184;28;20052;-71
2022/05/30 15:21:11;;;;;;;1.75;1.33;;;;;;;;;;5068310;28;20029;-73
2022/05/30 15:23:37;;;;;;;1.30;1.20;;;;;;;;;;5066777;28;20692;-74
2022/05/30 15:26:02;;;;;;;1.52;1.17;;;;;;;;;;5067617;28;20016;-72
2022/05/30 15:28:27;;;;;;;1.40;1.10;;;;;;;;;;5068104;28;20048;-73
2022/05/30 15:30:53;;;;;;;1.90;1.15;;;;;;;;;;5067600;28;20025;-73
2022/05/30 15:33:18;;;;;;;2.45;1.45;;;;;;;;;;5067600;28;20123;-73
2022/05/30 15:35:44;;;;;;;1.85;1.08;;;;;;;;;;5068176;28;20123;-71
2022/05/30 15:38:09;;;;;;;1.40;1.17;;;;;;;;;;5067082;28;20597;-72
2022/05/30 15:40:37;;;;;;;1.40;1.25;;;;;;;;;;5068056;28;20020;-73